createdAt,value
2018-11-22T12:17:07.383Z,5.50
2018-11-22T12:19:35.682Z,5.60
2018-11-22T12:22:03.987Z,5.70
2018-11-22T12:24:32.296Z,5.80
2018-11-22T12:27:00.633Z,5.90
2018-11-22T12:29:29.733Z,5.90
2018-11-22T12:32:02.305Z,6.00
2018-11-22T12:35:34.585Z,6.00
2018-11-22T12:38:08.229Z,6.00
2018-11-22T12:40:37.503Z,5.80
2018-11-22T12:43:04.925Z,5.70
2018-11-22T12:45:33.256Z,5.60
2018-11-22T12:48:01.644Z,5.50
2018-11-22T12:50:30.023Z,5.40
2018-11-22T12:52:58.316Z,5.30
2018-11-22T12:55:26.627Z,5.30
2018-11-22T12:57:54.975Z,5.30
2018-11-22T13:00:23.327Z,5.20
2018-11-22T13:02:51.644Z,5.20
2018-11-22T13:05:20.440Z,5.20
2018-11-22T13:07:48.771Z,5.20
2018-11-22T13:10:18.486Z,5.20
2018-11-22T13:12:47.714Z,5.20
2018-11-22T13:15:17.465Z,5.20
2018-11-22T13:17:45.783Z,5.10
2018-11-22T13:20:15.658Z,5.10
2018-11-22T13:22:44.009Z,5.10
2018-11-22T13:25:13.844Z,5.10
2018-11-22T13:27:42.554Z,5.10
2018-11-22T13:30:14.629Z,5.10
2018-11-22T13:32:43.592Z,5.10
2018-11-22T13:35:12.924Z,5.00
2018-11-22T13:37:42.219Z,5.00
2018-11-22T13:40:11.402Z,5.00
2018-11-22T13:42:40.950Z,5.00
2018-11-22T13:45:11.466Z,5.00
2018-11-22T13:47:41.182Z,5.00
2018-11-22T13:50:15.100Z,5.00
2018-11-22T13:52:43.872Z,5.00
2018-11-22T13:55:12.282Z,5.00
2018-11-22T13:57:40.643Z,5.00
2018-11-22T14:00:20.906Z,5.00
2018-11-22T14:02:50.681Z,4.90
2018-11-22T14:05:19.046Z,4.90
2018-11-22T14:07:47.372Z,4.90
2018-11-22T14:10:17.946Z,4.90
2018-11-22T14:12:46.264Z,4.90
2018-11-22T14:15:16.653Z,4.80
2018-11-22T14:17:45.448Z,4.80
2018-11-22T14:20:15.977Z,4.80
2018-11-22T14:22:44.270Z,4.80
2018-11-22T14:25:13.750Z,4.80
2018-11-22T14:27:42.744Z,4.80
2018-11-22T14:30:13.078Z,4.70
2018-11-22T14:32:42.300Z,4.70
2018-11-22T14:35:11.808Z,4.70
2018-11-22T14:37:40.402Z,4.60
2018-11-22T14:40:12.363Z,4.70
2018-11-22T14:42:40.676Z,4.60
2018-11-22T14:45:10.255Z,4.60
2018-11-22T14:47:38.550Z,4.60
2018-11-22T14:50:16.533Z,4.50
2018-11-22T14:52:48.068Z,4.50
2018-11-22T14:55:16.493Z,4.40
2018-11-22T14:57:44.826Z,4.40
2018-11-22T15:00:14.590Z,4.40
2018-11-22T15:02:44.290Z,4.30
2018-11-22T15:05:13.212Z,4.20
2018-11-22T15:07:42.182Z,4.10
2018-11-22T15:10:12.321Z,4.00
2018-11-22T15:12:41.735Z,4.00
2018-11-22T15:15:12.990Z,4.00
2018-11-22T15:17:41.664Z,3.90
2018-11-22T15:20:12.233Z,3.80
2018-11-22T15:22:41.414Z,3.80
2018-11-22T15:25:11.536Z,3.70
2018-11-22T15:27:40.125Z,3.70
2018-11-22T15:30:10.644Z,3.60
2018-11-22T15:32:39.222Z,3.60
2018-11-22T15:35:10.082Z,3.60
2018-11-22T15:37:38.684Z,3.50
2018-11-22T15:40:08.813Z,3.50
2018-11-22T15:42:37.392Z,3.40
2018-11-22T15:45:07.058Z,3.30
2018-11-22T15:47:35.374Z,3.20
2018-11-22T15:50:04.413Z,3.20
2018-11-22T15:52:32.803Z,3.20
2018-11-22T15:55:01.163Z,3.10
2018-11-22T15:57:29.492Z,3.00
2018-11-22T15:59:57.883Z,3.00
2018-11-22T16:02:26.202Z,2.90
2018-11-22T16:04:54.574Z,2.90
2018-11-22T16:07:22.941Z,2.80
2018-11-22T16:09:52.228Z,2.80
2018-11-22T16:12:20.864Z,2.80
2018-11-22T16:14:49.234Z,2.70
2018-11-22T16:17:17.590Z,2.70
2018-11-22T16:19:45.980Z,2.60
2018-11-22T16:22:14.295Z,2.60
2018-11-22T16:24:42.639Z,2.60
2018-11-22T16:27:10.956Z,2.60
2018-11-22T16:29:39.346Z,2.50
2018-11-22T16:32:08.004Z,2.50
2018-11-22T16:34:36.362Z,2.50
2018-11-22T16:37:04.874Z,2.50
2018-11-22T16:39:33.208Z,2.50
2018-11-22T16:42:01.571Z,2.40
2018-11-22T16:44:29.957Z,2.40
2018-11-22T16:46:58.885Z,2.30
2018-11-22T16:49:27.251Z,2.30
2018-11-22T16:51:55.897Z,2.30
2018-11-22T16:54:24.796Z,2.20
2018-11-22T16:56:53.138Z,2.20
2018-11-22T16:59:22.080Z,2.20
2018-11-22T17:01:50.803Z,2.10
2018-11-22T17:04:19.127Z,2.10
2018-11-22T17:06:47.500Z,2.00
2018-11-22T17:09:15.846Z,2.00
2018-11-22T17:11:44.220Z,2.10
2018-11-22T17:14:12.620Z,2.10
2018-11-22T17:16:40.964Z,2.10
2018-11-22T17:19:09.966Z,2.00
2018-11-22T17:21:38.291Z,2.00
2018-11-22T17:24:06.771Z,2.00
2018-11-22T17:26:35.171Z,2.00
2018-11-22T17:29:03.773Z,2.00
2018-11-22T17:31:32.421Z,2.00
2018-11-22T17:34:00.754Z,1.90
2018-11-22T17:36:29.129Z,1.90
2018-11-22T17:38:57.523Z,2.00
2018-11-22T17:41:25.901Z,1.90
2018-11-22T17:43:54.252Z,1.90
2018-11-22T17:46:22.629Z,1.90
2018-11-22T17:48:51.002Z,1.90
2018-11-22T17:51:20.419Z,1.80
2018-11-22T17:53:48.761Z,1.80
2018-11-22T17:56:17.142Z,1.80
2018-11-22T17:58:45.501Z,1.70
2018-11-22T18:01:14.632Z,1.70
2018-11-22T18:03:42.243Z,1.60
2018-11-22T18:06:10.711Z,1.60
2018-11-22T18:08:39.334Z,1.60
2018-11-22T18:11:07.681Z,1.50
2018-11-22T18:13:36.066Z,1.60
2018-11-22T18:16:04.511Z,1.50
2018-11-22T18:18:32.914Z,1.50
2018-11-22T18:21:01.635Z,1.50
2018-11-22T18:23:30.058Z,1.40
2018-11-22T18:25:58.419Z,1.40
2018-11-22T18:28:26.785Z,1.40
2018-11-22T18:30:55.362Z,1.40
2018-11-22T18:33:23.680Z,1.40
2018-11-22T18:35:53.113Z,1.30
2018-11-22T18:38:21.581Z,1.30
2018-11-22T18:40:49.972Z,1.20
2018-11-22T18:43:18.334Z,1.10
2018-11-22T18:45:48.392Z,1.10
2018-11-22T18:48:17.816Z,1.10
2018-11-22T18:50:47.087Z,1.00
2018-11-22T18:53:15.310Z,1.00
2018-11-22T18:55:43.740Z,1.00
2018-11-22T18:58:12.138Z,1.00
2018-11-22T19:00:42.234Z,0.90
2018-11-22T19:03:12.400Z,0.90
2018-11-22T19:05:40.840Z,0.80
2018-11-22T19:08:09.260Z,0.80
2018-11-22T19:10:39.052Z,-0.20
2018-11-22T19:13:08.631Z,0.70
2018-11-22T19:15:40.481Z,0.70
2018-11-22T19:18:09.641Z,0.60
2018-11-22T19:20:40.364Z,0.60
2018-11-22T19:23:09.518Z,0.60
2018-11-22T19:25:38.243Z,0.60
2018-11-22T19:28:07.571Z,0.60
2018-11-22T19:30:38.665Z,0.60
2018-11-22T19:33:08.516Z,0.60
2018-11-22T19:35:38.978Z,0.60
2018-11-22T19:38:07.474Z,0.60
2018-11-22T19:40:37.187Z,0.60
2018-11-22T19:43:07.208Z,0.60
2018-11-22T19:45:37.443Z,0.60
2018-11-22T19:48:06.526Z,0.50
2018-11-22T19:50:35.033Z,0.50
2018-11-22T19:53:05.131Z,0.60
2018-11-22T19:55:35.129Z,0.50
2018-11-22T19:58:05.219Z,0.60
2018-11-22T20:00:33.683Z,0.50
2018-11-22T20:03:03.587Z,0.50
2018-11-22T20:05:35.074Z,0.50
2018-11-22T20:08:05.610Z,0.50
2018-11-22T20:10:36.073Z,0.50
2018-11-22T20:13:04.933Z,0.40
2018-11-22T20:15:34.685Z,0.40
2018-11-22T20:18:04.442Z,0.40
2018-11-22T20:20:32.894Z,0.40
2018-11-22T20:23:01.438Z,0.40
2018-11-22T20:25:29.892Z,0.40
2018-11-22T20:27:58.363Z,0.40
2018-11-22T20:30:29.621Z,0.40
2018-11-22T20:32:58.088Z,0.40
2018-11-22T20:35:26.607Z,0.30
2018-11-22T20:37:55.301Z,0.30
2018-11-22T20:40:25.010Z,0.30
2018-11-22T20:42:53.497Z,0.30
2018-11-22T20:45:23.215Z,0.30
2018-11-22T20:47:53.213Z,0.30
2018-11-22T20:50:23.233Z,0.30
2018-11-22T20:52:52.316Z,-0.20
2018-11-22T20:55:24.471Z,0.30
2018-11-22T20:57:54.265Z,0.30
2018-11-22T21:00:24.346Z,0.30
2018-11-22T21:02:52.759Z,0.20
2018-11-22T21:05:22.995Z,0.20
2018-11-22T21:07:51.491Z,0.20
2018-11-22T21:10:23.104Z,0.20
2018-11-22T21:12:51.618Z,0.20
2018-11-22T21:15:21.827Z,0.20
2018-11-22T21:17:51.543Z,0.20
2018-11-22T21:20:22.390Z,0.10
2018-11-22T21:22:51.563Z,0.20
2018-11-22T21:25:20.649Z,0.10
2018-11-22T21:27:49.128Z,0.10
2018-11-22T21:30:23.319Z,0.10
2018-11-22T21:32:51.960Z,0.10
2018-11-22T21:35:20.751Z,0.10
2018-11-22T21:37:49.749Z,0.10
2018-11-22T21:40:18.840Z,0.20
2018-11-22T21:42:47.456Z,0.10
2018-11-22T21:45:18.024Z,0.10
2018-11-22T21:47:46.395Z,0.10
2018-11-22T21:50:15.950Z,0.00
2018-11-22T21:52:44.390Z,0.00
2018-11-22T21:55:15.066Z,0.00
2018-11-22T21:57:44.911Z,0.00
2018-11-22T22:00:17.023Z,0.10
2018-11-22T22:02:52.475Z,0.10
2018-11-22T22:05:14.976Z,0.10
2018-11-22T22:07:43.296Z,0.00
2018-11-22T22:10:11.755Z,0.00
2018-11-22T22:12:40.644Z,0.00
2018-11-22T22:15:12.189Z,-0.10
2018-11-22T22:17:41.378Z,-0.10
2018-11-22T22:20:13.446Z,-0.10
2018-11-22T22:22:42.133Z,-0.10
2018-11-22T22:25:12.479Z,-0.20
2018-11-22T22:27:41.369Z,-0.20
2018-11-22T22:30:12.824Z,-0.10
2018-11-22T22:32:41.412Z,-0.10
2018-11-22T22:35:10.138Z,-0.10
2018-11-22T22:37:39.103Z,-0.10
2018-11-22T22:40:15.064Z,-0.10
2018-11-22T22:42:44.466Z,-0.10
2018-11-22T22:45:13.777Z,-0.10
2018-11-22T22:47:42.568Z,-0.10
2018-11-22T22:50:13.614Z,-0.20
2018-11-22T22:52:49.627Z,-0.20
2018-11-22T22:55:17.967Z,-0.30
2018-11-22T22:57:46.287Z,-0.30
2018-11-22T23:00:23.839Z,-0.40
2018-11-22T23:02:54.369Z,-0.40
2018-11-22T23:05:23.372Z,-0.40
2018-11-22T23:07:51.779Z,-0.40
2018-11-22T23:10:20.548Z,-0.30
2018-11-22T23:12:48.864Z,-0.30
2018-11-22T23:15:18.064Z,-0.30
2018-11-22T23:17:46.386Z,-0.30
2018-11-22T23:20:17.274Z,-0.40
2018-11-22T23:22:46.138Z,-0.40
2018-11-22T23:25:15.030Z,-0.50
2018-11-22T23:27:43.334Z,-0.50
2018-11-22T23:30:16.404Z,-0.60
2018-11-22T23:32:46.248Z,-0.50
2018-11-22T23:35:14.691Z,-0.60
2018-11-22T23:37:43.305Z,-0.60
2018-11-22T23:40:15.176Z,-0.60
2018-11-22T23:42:43.747Z,-0.60
2018-11-22T23:45:13.271Z,-0.70
2018-11-22T23:47:42.069Z,-0.70
2018-11-22T23:50:13.783Z,-0.70
2018-11-22T23:52:43.238Z,-0.80
2018-11-22T23:55:11.607Z,-0.80
2018-11-22T23:57:40.307Z,-0.80
